Share

Pine Ridge, KY

RAWS KOOMER KY US (MKOMK2) Elev 1299 ft | 37.78 °N, 83.63 °W | Change Station

Current weather conditions updated 50 minutes ago

Clear
Clear
67 °F
Feels Like 67 °F
N
4
Wind Variable Wind from ESE
Gusts 9.0 mph
Sunrise 6:56 AM
Sunset 8:12 PM
Moon Waning Gibbous

Tomorrow is forecast to be nearly the same temperature as today.

Pressure 30.30 in
Visibility 10.0 miles
Clouds Clear
Dew Point 18 °F
Humidity 15%
Rainfall 0.00 in
Snow Depth Not available.
UV 0 out of 16
Pollen 9.80 out of 12
Air Quality Not available.
Flu Activity Sporadic
METAR KIOB 172335Z AUTO 00000KT 10SM CLR 18/01 A3030 RMK AO2

More Conditions Fewer Conditions

Pressure 30.30 in
Visibility 10.0 miles
Clouds Clear
Dew Point 18 °F
Humidity 15%
Rainfall 0.00 in
Snow Depth Not available.
UV 0 out of 16
Pollen 9.80 out of 12
Air Quality Not available.
Flu Activity Sporadic
METAR KIOB 172335Z AUTO 00000KT 10SM CLR 18/01 A3030 RMK AO2

More Conditions Fewer Conditions

10-Day Forecast

Almanac

Astronomy

Apr. 17, 2014 Rise Set
Actual Time 6:56 AM EDT 8:12 PM EDT
Civil Twilight 6:29 AM EDT 8:39 PM EDT
Nautical Twilight 5:56 AM EDT 9:11 PM EDT
Astronomical Twilight 5:23 AM EDT 9:46 PM EDT
Moon 10:54 PM EDT 8:29 AM EDT
Length of Visible Light 14h 09m
Length of Day
13h 15m
Tomorrow will be 2m 17s longer.
Waning Gibbous, 92% of the Moon is Illuminated
Today
Waning Gibbous
Apr 22
Last Quarter
Apr 29
New
May 6
First Quarter
May 14
Full

Today's Extremes

State Highs State Lows

Community

  • Morning Light
    Morning Light
  • New Day
    New Day
  • Lake Michigan Sunrise
    Lake Michigan Sunrise
  • sunset from izmir, narlıdere
    sunset from izmir, narlıdere
  • oregon cherry
    oregon cherry

WunderPhotos

Upload Photos

1,702,176 photos uploaded!

WunderBlogs® & News

Nearby

Snow Depth

Station Depth Elevation
No new snow has been reported.

Coastal Water Temperatures

Place Temperature
No Stations Reporting

Earthquake Activity

City Distance Mag. Time & Date
No recent earthquake activity has been reported nearby.
Minimum magnitude displayed is 2.5.

Nearby Weather Stations

Station Location Temp. Heat Index Dew Point Humidity Wind Precip. Elev Updated Type
RAWS KOOMER KY, Pine Ridge, KY 67 °F - 18 °F 15% ESE  at  4 mph 0.00 in / hr 1299 ft 7:09 PM EDT MADIS
KYTC_RWIS Mountain Parkway @ MP 36 (Slad, Pine Ridge, KY 67 °F - 21 °F 17% East  at  2 mph 0.00 in / hr 1253 ft 6:45 PM EDT MADIS
Irvine, KY 70.3 °F 76 °F 35 °F 27% WNW  at  2.7 mph 0.00 in / hr 1014 ft 7:59 PM EDT Rapid Fire
RAWS JACKSON CO AP KY, Jackson, KY 71 °F 73 °F 19 °F 14% SSW  at  2 mph 0.00 in / hr 1388 ft 7:15 PM EDT MADIS
SLOAN, Irvine, KY 68.0 °F - 37 °F 32% NW  at  4.7 mph - / hr 791 ft 7:47 PM EDT Normal
PICNIC HILL, IRVINE, KY 67.9 °F - 34 °F 29% WNW  at  0.0 mph - / hr 843 ft 7:52 PM EDT Normal

Show More Stations Show Fewer Stations

What do you think?

We're not finished. Please let us know what you like, what you don't like, and what you are still missing.